KTHA/THA METAR and TAF weather

Enter ICAO airport designator
Station Type Date Time Source
KTHA METAR 2019/08/26 06:55 UTC NOAA

KTHA 260655Z AUTO 15007KT 9SM BKN031 BKN044 OVC049 21/20 A2998 RMK A01


Station Type Date Time Source
KTHA Decoded METAR 2019/08/26 06:55 UTC NOAA

Station name not available
Aug 26, 2019 - 02:55 AM EDT / 2019.08.26 0655 UTC
Wind: from the SSE (150 degrees) at 8 MPH (7 KT):0
Visibility: 9 mile(s):0
Sky conditions: overcast
Temperature: 69 F (21 C)
Dew Point: 68 F (20 C)
Relative Humidity: 94%
Pressure (altimeter): 29.98 in. Hg (1015 hPa)
ob: KTHA 260655Z AUTO 15007KT 9SM BKN031 BKN044 OVC049 21/20 A2998 RMK A01
cycle: 7

Station Type Date Time Source
KTHA TAF UTC NOAA

Error!

Example: see airport list